createdAt,value
2022-11-21T00:00:48.207Z,75.10
2022-11-21T00:03:15.405Z,74.93
2022-11-21T00:05:44.889Z,74.86
2022-11-21T00:08:13.602Z,75.66
2022-11-21T00:10:41.166Z,75.70
2022-11-21T00:13:12.271Z,74.86
2022-11-21T00:15:38.896Z,75.00
2022-11-21T00:18:05.633Z,75.62
2022-11-21T00:20:32.421Z,75.65
2022-11-21T00:22:59.042Z,75.92
2022-11-21T00:25:25.653Z,75.83
2022-11-21T00:27:52.950Z,76.19
2022-11-21T00:30:19.696Z,75.84
2022-11-21T00:32:46.344Z,75.44
2022-11-21T00:35:13.363Z,75.55
2022-11-21T00:37:39.989Z,75.59
2022-11-21T00:40:07.151Z,74.41
2022-11-21T00:42:34.072Z,74.83
2022-11-21T00:45:00.709Z,74.97
2022-11-21T00:47:27.376Z,74.60
2022-11-21T00:49:54.149Z,74.62
2022-11-21T00:52:20.814Z,74.94
2022-11-21T00:54:47.366Z,75.35
2022-11-21T00:57:13.996Z,75.25
2022-11-21T00:59:40.611Z,75.60
2022-11-21T01:02:07.315Z,75.72
2022-11-21T01:04:35.213Z,75.94
2022-11-21T01:07:01.896Z,75.67
2022-11-21T01:09:28.801Z,75.93
2022-11-21T01:11:56.492Z,75.34
2022-11-21T01:14:24.169Z,75.74
2022-11-21T01:16:50.919Z,74.56
2022-11-21T01:19:17.588Z,75.85
2022-11-21T01:21:44.211Z,76.31
2022-11-21T01:24:12.416Z,76.49
2022-11-21T01:26:39.336Z,75.60
2022-11-21T01:29:07.154Z,76.10
2022-11-21T01:31:33.762Z,76.45
2022-11-21T01:34:01.278Z,76.27
2022-11-21T01:36:33.352Z,76.33
2022-11-21T01:39:02.955Z,76.41
2022-11-21T01:41:33.958Z,76.70
2022-11-21T01:44:01.938Z,76.42
2022-11-21T01:46:28.722Z,76.84
2022-11-21T01:49:33.598Z,76.73
2022-11-21T01:52:08.520Z,76.08
2022-11-21T01:54:43.095Z,76.46
2022-11-21T01:57:17.684Z,76.74
2022-11-21T02:00:05.847Z,75.86
2022-11-21T02:02:36.111Z,76.67
2022-11-21T02:05:06.716Z,76.44
2022-11-21T02:07:36.982Z,76.26
2022-11-21T02:10:05.383Z,75.96
2022-11-21T02:12:50.138Z,75.63
2022-11-21T02:15:19.275Z,75.93
2022-11-21T02:17:46.221Z,76.08
2022-11-21T02:20:16.088Z,75.43
2022-11-21T02:23:06.120Z,76.03
2022-11-21T02:25:42.230Z,76.33
2022-11-21T02:28:15.378Z,76.32
2022-11-21T02:30:43.159Z,75.88
2022-11-21T02:33:11.092Z,76.22
2022-11-21T02:35:37.829Z,76.01
2022-11-21T02:38:16.617Z,76.18
2022-11-21T02:40:52.190Z,76.37
2022-11-21T02:43:28.363Z,76.57
2022-11-21T02:45:55.253Z,76.58
2022-11-21T02:48:22.100Z,76.27
2022-11-21T02:50:48.678Z,76.11
2022-11-21T02:53:18.218Z,75.65
2022-11-21T02:55:45.203Z,76.30
2022-11-21T02:58:12.812Z,75.80
2022-11-21T03:00:41.228Z,76.20
2022-11-21T03:03:08.153Z,75.51
2022-11-21T03:05:35.408Z,74.54
2022-11-21T03:08:02.273Z,74.83
2022-11-21T03:10:28.989Z,74.92
2022-11-21T03:13:01.011Z,75.52
2022-11-21T03:15:30.080Z,75.51
2022-11-21T03:17:56.790Z,75.99
2022-11-21T03:20:23.614Z,75.35
2022-11-21T03:22:50.548Z,76.29
2022-11-21T03:25:17.632Z,75.43
2022-11-21T03:27:44.328Z,75.29
2022-11-21T03:30:11.743Z,75.17
2022-11-21T03:32:38.475Z,75.39
2022-11-21T03:35:05.779Z,75.26
2022-11-21T03:37:32.437Z,75.43
2022-11-21T03:39:59.037Z,75.32
2022-11-21T03:42:25.625Z,75.09
2022-11-21T03:44:52.354Z,74.58
2022-11-21T03:47:19.128Z,75.29
2022-11-21T03:49:45.729Z,74.78
2022-11-21T03:52:12.357Z,74.77
2022-11-21T03:54:39.037Z,74.58
2022-11-21T03:57:05.655Z,74.50
2022-11-21T03:59:32.284Z,75.27
2022-11-21T04:01:58.956Z,74.45
2022-11-21T04:04:25.979Z,74.92
2022-11-21T04:06:53.108Z,74.46
2022-11-21T04:09:19.761Z,74.53
2022-11-21T04:11:46.326Z,74.93
2022-11-21T04:14:13.018Z,76.33
2022-11-21T04:16:39.639Z,76.27
2022-11-21T04:19:06.240Z,76.32
2022-11-21T04:21:32.981Z,76.80
2022-11-21T04:23:59.568Z,76.11
2022-11-21T04:26:26.166Z,76.25
2022-11-21T04:28:52.879Z,76.55
2022-11-21T04:31:19.482Z,76.38
2022-11-21T04:33:46.156Z,76.10
2022-11-21T04:36:13.062Z,76.55
2022-11-21T04:38:39.709Z,76.34
2022-11-21T04:41:06.352Z,76.93
2022-11-21T04:43:33.174Z,75.99
2022-11-21T04:45:59.789Z,76.35
2022-11-21T04:48:26.779Z,76.12
2022-11-21T04:50:53.550Z,75.90
2022-11-21T04:53:20.276Z,75.23
2022-11-21T04:55:46.985Z,74.77
2022-11-21T04:58:13.968Z,74.70
2022-11-21T05:00:40.594Z,75.71
2022-11-21T05:03:07.208Z,75.53
2022-11-21T05:05:33.902Z,74.98
2022-11-21T05:08:00.584Z,75.32
2022-11-21T05:10:27.317Z,75.03
2022-11-21T05:13:21.051Z,74.48
2022-11-21T05:15:51.453Z,75.01
2022-11-21T05:18:19.667Z,75.10
2022-11-21T05:20:46.460Z,75.42
2022-11-21T05:23:13.422Z,75.75
2022-11-21T05:25:40.444Z,75.17
2022-11-21T05:28:07.113Z,75.10
2022-11-21T05:30:33.740Z,74.95
2022-11-21T05:33:00.442Z,76.22
2022-11-21T05:35:27.099Z,76.22
2022-11-21T05:37:59.609Z,75.95
2022-11-21T05:40:26.587Z,75.51
2022-11-21T05:43:11.968Z,75.86
2022-11-21T05:45:38.970Z,75.70
2022-11-21T05:48:08.882Z,75.63
2022-11-21T05:50:36.460Z,75.74
2022-11-21T05:53:04.621Z,76.43
2022-11-21T05:55:33.878Z,76.93
2022-11-21T05:58:00.914Z,76.78
2022-11-21T06:00:28.994Z,77.34
2022-11-21T06:03:14.804Z,77.03
2022-11-21T06:05:41.722Z,77.33
2022-11-21T06:08:08.546Z,77.95
2022-11-21T06:10:35.237Z,78.04
2022-11-21T06:13:02.421Z,77.70
2022-11-21T06:15:29.803Z,77.69
2022-11-21T06:17:56.422Z,77.04
2022-11-21T06:20:23.177Z,77.06
2022-11-21T06:22:49.837Z,76.94
2022-11-21T06:25:16.501Z,77.37
2022-11-21T06:27:43.140Z,76.41
2022-11-21T06:30:10.268Z,76.79
2022-11-21T06:32:38.095Z,76.70
2022-11-21T06:35:05.258Z,75.96
2022-11-21T06:37:32.000Z,76.21
2022-11-21T06:39:59.404Z,76.19
2022-11-21T06:42:26.203Z,76.27
2022-11-21T06:44:53.277Z,75.79
2022-11-21T06:47:20.145Z,74.86
2022-11-21T06:49:46.738Z,74.93
2022-11-21T06:52:13.375Z,75.35
2022-11-21T06:54:40.122Z,74.86
2022-11-21T06:57:06.733Z,74.63
2022-11-21T06:59:33.347Z,75.11
2022-11-21T07:02:00.542Z,74.47
2022-11-21T07:04:27.456Z,73.26
2022-11-21T07:06:54.314Z,73.90
2022-11-21T07:09:36.396Z,73.31
2022-11-21T07:12:21.981Z,73.91
2022-11-21T07:14:48.624Z,73.21
2022-11-21T07:17:15.300Z,74.00
2022-11-21T07:19:41.972Z,73.75
2022-11-21T07:22:08.944Z,74.14
2022-11-21T07:24:35.592Z,73.55
2022-11-21T07:27:02.707Z,73.71
2022-11-21T07:29:29.912Z,73.52
2022-11-21T07:31:56.876Z,73.49
2022-11-21T07:34:23.545Z,73.01
2022-11-21T07:36:50.205Z,73.32
2022-11-21T07:39:16.839Z,73.40
2022-11-21T07:41:43.481Z,73.58
2022-11-21T07:44:10.167Z,73.12
2022-11-21T07:46:36.758Z,72.74
2022-11-21T07:49:03.922Z,72.69
2022-11-21T07:51:30.855Z,72.37
2022-11-21T07:53:57.489Z,72.90
2022-11-21T07:56:26.559Z,72.43
2022-11-21T07:58:53.436Z,72.33
2022-11-21T08:01:20.198Z,71.42
2022-11-21T08:03:46.923Z,70.56
2022-11-21T08:06:13.720Z,71.34
2022-11-21T08:08:40.337Z,71.15
2022-11-21T08:11:07.762Z,69.69
2022-11-21T08:13:35.456Z,70.35
2022-11-21T08:16:06.229Z,70.81
2022-11-21T08:18:33.333Z,70.15
2022-11-21T08:21:04.695Z,69.91
2022-11-21T08:23:32.486Z,69.99
2022-11-21T08:25:59.389Z,69.85
2022-11-21T08:28:26.024Z,70.09
2022-11-21T08:30:53.007Z,68.93
2022-11-21T08:33:19.742Z,69.50
2022-11-21T08:35:46.360Z,69.59
2022-11-21T08:38:13.292Z,68.63
2022-11-21T08:40:40.122Z,67.93
2022-11-21T08:43:08.813Z,68.56
2022-11-21T08:45:36.596Z,68.63
2022-11-21T08:48:03.350Z,68.42
2022-11-21T08:50:30.056Z,67.67
2022-11-21T08:53:01.685Z,66.92
2022-11-21T08:55:29.324Z,68.38
2022-11-21T08:57:55.995Z,67.08
2022-11-21T09:00:22.781Z,67.73
2022-11-21T09:02:49.650Z,68.29
2022-11-21T09:05:16.360Z,67.21
2022-11-21T09:07:43.129Z,67.53
2022-11-21T09:10:10.338Z,68.08
2022-11-21T09:12:37.050Z,68.09
2022-11-21T09:15:22.539Z,67.12
2022-11-21T09:18:04.501Z,66.75
2022-11-21T09:20:39.231Z,67.82
2022-11-21T09:23:12.235Z,68.02
2022-11-21T09:25:39.187Z,68.24
2022-11-21T09:28:07.599Z,67.50
2022-11-21T09:30:35.176Z,67.77
2022-11-21T09:33:02.855Z,67.34
2022-11-21T09:35:29.771Z,67.66
2022-11-21T09:37:57.595Z,67.33
2022-11-21T09:40:25.166Z,66.38
2022-11-21T09:43:36.000Z,66.82
2022-11-21T09:46:10.078Z,67.23
2022-11-21T09:48:48.683Z,66.30
2022-11-21T09:51:19.207Z,66.31
2022-11-21T09:53:53.588Z,66.78
2022-11-21T09:56:25.808Z,66.05
2022-11-21T09:59:14.287Z,65.41
2022-11-21T10:01:41.027Z,65.99
2022-11-21T10:04:07.887Z,66.19
2022-11-21T10:06:48.238Z,66.21
2022-11-21T10:09:32.099Z,66.04
2022-11-21T10:12:40.082Z,65.65
2022-11-21T10:15:12.550Z,65.43
2022-11-21T10:17:48.266Z,66.47
2022-11-21T10:20:21.143Z,66.05
2022-11-21T10:22:51.327Z,65.49
2022-11-21T10:25:33.841Z,64.49
2022-11-21T10:28:05.215Z,65.45
2022-11-21T10:30:32.170Z,65.22
2022-11-21T10:33:04.635Z,65.72
2022-11-21T10:35:51.876Z,66.47
2022-11-21T10:38:24.209Z,65.97
2022-11-21T10:41:03.026Z,66.77
2022-11-21T10:44:08.281Z,65.74
2022-11-21T10:46:34.898Z,66.14
2022-11-21T10:49:04.891Z,66.15
2022-11-21T10:51:53.303Z,66.70
2022-11-21T10:54:35.142Z,66.90
2022-11-21T10:57:15.462Z,67.31
2022-11-21T10:59:59.397Z,66.48
2022-11-21T11:02:27.023Z,66.49
2022-11-21T11:05:16.225Z,66.30
2022-11-21T11:07:58.398Z,66.70
2022-11-21T11:10:28.212Z,66.97
2022-11-21T11:13:44.472Z,67.25
2022-11-21T11:16:05.665Z,67.35
2022-11-21T11:18:40.894Z,66.49
2022-11-21T11:21:15.576Z,66.35
2022-11-21T11:23:42.670Z,66.49
2022-11-21T11:26:29.950Z,66.28
2022-11-21T11:29:17.003Z,66.10
2022-11-21T11:31:51.093Z,66.16
2022-11-21T11:34:18.586Z,67.09
2022-11-21T11:36:54.405Z,67.64
2022-11-21T11:39:35.059Z,66.95
2022-11-21T11:42:26.536Z,67.04
2022-11-21T11:45:34.572Z,66.63
2022-11-21T11:48:10.994Z,67.55
2022-11-21T11:50:44.624Z,67.98
2022-11-21T11:53:23.077Z,67.72
2022-11-21T11:56:08.209Z,67.68
2022-11-21T11:59:07.229Z,67.47
2022-11-21T12:02:11.614Z,67.07
2022-11-21T12:04:57.212Z,66.90
2022-11-21T12:10:58.662Z,67.08
2022-11-21T12:13:28.487Z,67.06
2022-11-21T12:16:04.984Z,66.83
2022-11-21T12:18:52.378Z,66.83
2022-11-21T12:21:19.965Z,66.29
2022-11-21T12:23:50.817Z,67.19
2022-11-21T12:26:20.331Z,66.77
2022-11-21T12:29:05.967Z,67.56
2022-11-21T12:32:04.390Z,67.28
2022-11-21T12:34:56.077Z,67.41
2022-11-21T12:37:34.641Z,67.46
2022-11-21T12:40:17.035Z,68.28
2022-11-21T12:42:51.944Z,68.32
2022-11-21T12:45:27.336Z,68.37
2022-11-21T12:48:21.866Z,68.81
2022-11-21T12:51:24.966Z,68.95
2022-11-21T12:54:32.082Z,68.95
2022-11-21T12:57:19.548Z,69.11
2022-11-21T12:59:58.641Z,68.82
2022-11-21T13:02:30.065Z,68.83
2022-11-21T13:05:00.284Z,68.89
2022-11-21T13:07:29.786Z,68.67
2022-11-21T13:09:59.981Z,69.52
2022-11-21T13:12:45.690Z,69.41
2022-11-21T13:15:28.408Z,69.88
2022-11-21T13:18:03.007Z,69.77
2022-11-21T13:20:34.561Z,69.18
2022-11-21T13:23:06.494Z,69.21
2022-11-21T13:25:33.363Z,70.38
2022-11-21T13:28:18.563Z,70.17
2022-11-21T13:30:53.340Z,69.27
2022-11-21T13:33:35.208Z,70.16
2022-11-21T13:36:30.029Z,70.51
2022-11-21T13:38:56.758Z,70.59
2022-11-21T13:41:54.401Z,70.25
2022-11-21T13:44:33.437Z,70.51
2022-11-21T13:47:15.105Z,70.53
2022-11-21T13:49:49.155Z,70.50
2022-11-21T13:52:29.943Z,70.79
2022-11-21T13:55:34.127Z,70.83
2022-11-21T13:58:21.916Z,70.53
2022-11-21T14:01:21.029Z,70.79
2022-11-21T14:04:24.845Z,70.49
2022-11-21T14:06:51.662Z,70.94
2022-11-21T14:09:25.329Z,70.75
2022-11-21T14:12:00.625Z,71.02
2022-11-21T14:14:38.724Z,71.24
2022-11-21T14:17:30.470Z,71.11
2022-11-21T14:19:59.585Z,70.87
2022-11-21T14:22:42.332Z,71.14
2022-11-21T14:25:22.276Z,71.38
2022-11-21T14:27:52.928Z,71.17
2022-11-21T14:30:29.688Z,71.29
2022-11-21T14:32:56.602Z,71.12
2022-11-21T14:35:24.355Z,71.34
2022-11-21T14:37:51.724Z,71.50
2022-11-21T14:40:23.669Z,71.80
2022-11-21T14:42:50.630Z,72.00
2022-11-21T14:45:23.000Z,71.98
2022-11-21T14:47:51.942Z,72.15
2022-11-21T14:50:26.044Z,72.54
2022-11-21T14:52:57.351Z,72.05
2022-11-21T14:55:30.643Z,72.26
2022-11-21T14:58:03.365Z,72.41
2022-11-21T15:00:58.011Z,72.20
2022-11-21T15:03:23.339Z,72.21
2022-11-21T15:06:04.668Z,72.24
2022-11-21T15:11:25.860Z,72.05
2022-11-21T15:14:15.430Z,72.60
2022-11-21T15:19:33.878Z,72.56
2022-11-21T15:22:04.264Z,72.89
2022-11-21T15:24:37.736Z,72.74
2022-11-21T15:27:26.285Z,72.90
2022-11-21T15:30:28.238Z,73.31
2022-11-21T15:33:04.061Z,73.71
2022-11-21T15:35:49.445Z,73.69
2022-11-21T15:38:47.125Z,73.30
2022-11-21T15:41:14.422Z,73.22
2022-11-21T15:44:13.567Z,73.48
2022-11-21T15:46:43.327Z,73.31
2022-11-21T15:49:32.590Z,73.39
2022-11-21T15:52:06.998Z,73.40
2022-11-21T15:54:47.169Z,73.36
2022-11-21T15:57:13.407Z,72.69
2022-11-21T15:57:16.664Z,73.23
2022-11-21T15:59:44.013Z,73.49
2022-11-21T16:02:13.893Z,73.29
2022-11-21T16:04:41.716Z,73.19
2022-11-21T16:07:08.497Z,73.33
2022-11-21T16:09:36.102Z,73.91
2022-11-21T16:12:02.923Z,73.55
2022-11-21T16:14:29.703Z,73.87
2022-11-21T16:16:59.519Z,73.31
2022-11-21T16:19:26.474Z,73.00
2022-11-21T16:21:53.789Z,72.57
2022-11-21T16:24:20.622Z,72.86
2022-11-21T16:26:49.232Z,73.41
2022-11-21T16:29:15.863Z,73.47
2022-11-21T16:31:42.649Z,73.28
2022-11-21T16:34:09.286Z,73.24
2022-11-21T16:36:36.408Z,73.22
2022-11-21T16:39:08.888Z,72.59
2022-11-21T16:41:39.411Z,73.05
2022-11-21T16:44:13.705Z,73.54
2022-11-21T16:46:45.182Z,72.96
2022-11-21T16:49:11.888Z,72.94
2022-11-21T16:51:38.503Z,73.36
2022-11-21T16:54:08.890Z,73.20
2022-11-21T16:56:37.808Z,73.34
2022-11-21T16:59:08.021Z,74.06
2022-11-21T17:01:34.847Z,73.72
2022-11-21T17:04:03.715Z,73.58
2022-11-21T17:06:31.740Z,74.06
2022-11-21T17:09:02.159Z,73.93
2022-11-21T17:11:31.249Z,73.73
2022-11-21T17:14:03.285Z,73.76
2022-11-21T17:16:30.764Z,73.74
2022-11-21T17:18:59.704Z,74.06
2022-11-21T17:21:27.609Z,74.11
2022-11-21T17:23:55.154Z,73.94
2022-11-21T17:26:27.210Z,74.00
2022-11-21T17:28:59.075Z,73.69
2022-11-21T17:31:26.616Z,73.89
2022-11-21T17:33:54.738Z,73.77
2022-11-21T17:36:23.431Z,73.75
2022-11-21T17:38:50.388Z,73.60
2022-11-21T17:41:21.022Z,73.82
2022-11-21T17:43:48.474Z,73.95
2022-11-21T17:46:19.879Z,74.02
2022-11-21T17:48:54.514Z,73.86
2022-11-21T17:51:24.169Z,73.46
2022-11-21T17:53:52.435Z,74.04
2022-11-21T17:56:21.800Z,73.55
2022-11-21T17:58:48.822Z,74.23
2022-11-21T18:01:19.719Z,74.01
2022-11-21T18:03:48.676Z,73.37
2022-11-21T18:06:17.042Z,73.96
2022-11-21T18:08:45.676Z,73.07
2022-11-21T18:11:14.387Z,73.85
2022-11-21T18:13:41.922Z,74.22
2022-11-21T18:16:11.508Z,74.14
2022-11-21T18:18:38.495Z,73.83
2022-11-21T18:21:11.229Z,73.62
2022-11-21T18:23:38.198Z,73.09
2022-11-21T18:26:07.905Z,73.43
2022-11-21T18:28:34.510Z,73.83
2022-11-21T18:31:08.924Z,74.02
2022-11-21T18:33:37.065Z,73.23
2022-11-21T18:36:05.950Z,73.22
2022-11-21T18:38:57.798Z,73.67
2022-11-21T18:41:27.796Z,73.50
2022-11-21T18:43:55.883Z,73.65
2022-11-21T18:46:24.300Z,73.57
2022-11-21T18:49:04.705Z,73.45
2022-11-21T18:51:32.679Z,73.42
2022-11-21T18:54:08.511Z,73.35
2022-11-21T18:56:37.487Z,73.85
2022-11-21T18:59:05.981Z,73.53
2022-11-21T19:01:34.184Z,73.93
2022-11-21T19:04:01.151Z,73.98
2022-11-21T19:06:29.618Z,74.20
2022-11-21T19:08:58.010Z,74.55
2022-11-21T19:11:27.555Z,74.64
2022-11-21T19:13:58.175Z,74.63
2022-11-21T19:16:31.768Z,74.92
2022-11-21T19:21:45.790Z,75.32
2022-11-21T19:24:14.579Z,74.94
2022-11-21T19:26:44.666Z,75.07
2022-11-21T19:29:11.550Z,74.90
2022-11-21T19:31:44.549Z,74.78
2022-11-21T19:34:14.444Z,75.15
2022-11-21T19:36:41.474Z,75.05
2022-11-21T19:39:09.108Z,75.54
2022-11-21T19:41:36.301Z,75.50
2022-11-21T19:44:03.714Z,75.59
2022-11-21T19:46:36.886Z,75.85
2022-11-21T19:49:05.035Z,75.89
2022-11-21T19:51:41.126Z,76.26
2022-11-21T19:54:10.947Z,75.22
2022-11-21T19:56:37.707Z,75.55
2022-11-21T19:59:05.071Z,75.26
2022-11-21T20:01:34.143Z,75.86
2022-11-21T20:04:03.553Z,75.74
2022-11-21T20:06:35.477Z,76.05
2022-11-21T20:09:09.619Z,75.99
2022-11-21T20:11:38.575Z,76.17
2022-11-21T20:14:05.752Z,75.79
2022-11-21T20:16:35.187Z,76.09
2022-11-21T20:19:08.216Z,76.27
2022-11-21T20:21:34.971Z,76.42
2022-11-21T20:24:01.971Z,75.92
2022-11-21T20:26:28.707Z,75.69
2022-11-21T20:28:56.056Z,75.60
2022-11-21T20:31:26.929Z,76.08
2022-11-21T20:33:57.612Z,75.81
2022-11-21T20:36:25.940Z,76.03
2022-11-21T20:38:57.914Z,75.78
2022-11-21T20:41:27.698Z,76.42
2022-11-21T20:44:53.143Z,76.44
2022-11-21T20:46:43.156Z,76.79
2022-11-21T20:49:09.775Z,75.80
2022-11-21T20:54:23.338Z,76.55
2022-11-21T20:56:50.197Z,76.28
2022-11-21T20:59:17.005Z,76.50
2022-11-21T21:01:43.774Z,76.47
2022-11-21T21:04:11.429Z,76.61
2022-11-21T21:06:39.541Z,76.37
2022-11-21T21:09:06.476Z,76.55
2022-11-21T21:14:21.390Z,76.66
2022-11-21T21:16:48.759Z,76.45
2022-11-21T21:19:16.065Z,76.27
2022-11-21T21:21:42.698Z,76.44
2022-11-21T21:24:11.381Z,76.59
2022-11-21T21:26:42.944Z,76.88
2022-11-21T21:29:12.199Z,76.94
2022-11-21T21:31:39.159Z,76.42
2022-11-21T21:34:05.764Z,76.98
2022-11-21T21:36:32.586Z,76.89
2022-11-21T21:39:00.261Z,76.79
2022-11-21T21:41:29.128Z,76.46
2022-11-21T21:43:57.476Z,76.47
2022-11-21T21:46:26.048Z,76.25
2022-11-21T21:48:57.258Z,76.09
2022-11-21T21:51:26.286Z,76.58
2022-11-21T21:53:54.824Z,76.33
2022-11-21T21:56:23.186Z,76.16
2022-11-21T21:58:51.304Z,76.50
2022-11-21T22:01:20.695Z,76.02
2022-11-21T22:03:48.206Z,76.04
2022-11-21T22:06:17.833Z,76.22
2022-11-21T22:08:46.914Z,75.99
2022-11-21T22:11:16.533Z,76.15
2022-11-21T22:13:45.323Z,76.52
2022-11-21T22:16:13.673Z,76.27
2022-11-21T22:18:40.976Z,76.61
2022-11-21T22:21:17.996Z,76.41
2022-11-21T22:24:09.260Z,76.55
2022-11-21T22:26:32.030Z,76.50
2022-11-21T22:28:58.622Z,76.00
2022-11-21T22:31:25.318Z,75.78
2022-11-21T22:33:52.078Z,76.12
2022-11-21T22:36:18.938Z,76.50
2022-11-21T22:38:45.773Z,75.94
2022-11-21T22:41:18.656Z,76.17
2022-11-21T22:43:50.000Z,76.23
2022-11-21T22:46:17.297Z,76.04
2022-11-21T22:48:43.924Z,75.44
2022-11-21T22:51:13.110Z,75.61
2022-11-21T22:53:40.502Z,75.77
2022-11-21T22:56:13.392Z,76.33
2022-11-21T22:58:40.779Z,76.17
2022-11-21T23:01:09.752Z,76.08
2022-11-21T23:03:36.904Z,76.33
2022-11-21T23:06:07.750Z,75.86
2022-11-21T23:08:35.036Z,75.95
2022-11-21T23:11:04.075Z,76.12
2022-11-21T23:13:31.308Z,76.13
2022-11-21T23:15:58.350Z,75.87
2022-11-21T23:18:25.325Z,75.55
2022-11-21T23:20:52.572Z,75.91
2022-11-21T23:23:20.373Z,75.43
2022-11-21T23:25:47.370Z,75.46
2022-11-21T23:28:14.491Z,75.34
2022-11-21T23:30:41.469Z,76.06
2022-11-21T23:33:10.985Z,76.02
2022-11-21T23:35:37.873Z,76.20
2022-11-21T23:38:05.032Z,76.05
2022-11-21T23:40:31.711Z,75.75
2022-11-21T23:42:58.487Z,76.10
2022-11-21T23:45:25.346Z,75.77
2022-11-21T23:47:52.234Z,76.02
2022-11-21T23:50:21.227Z,76.23
2022-11-21T23:52:48.767Z,76.25
2022-11-21T23:55:16.350Z,76.04
2022-11-21T23:57:47.293Z,76.16
